首页
METAR-TAF:

METAR-TAF

机场 :

亞美利加國際機場

Punta Caucedo, 多米尼加共和国

纬度: 18-26N, 经度: 069-40W, 海拔: 18米

当前天气观测

该预报发布于1小时和5分钟前的23:00 UTC
静风
温度 29°C
湿度 89%
气压 1015 hPa
能见度10公里或以上
少量云层高于1600英尺, 积雨云.
散云层高于1800英尺
多云层高于30000英尺

METAR: MDSD 282300Z 00000KT 9999 FEW016CB SCT018 BKN300 29/27 Q1015 CB/NE/N

时间: 20:05 (00:05 UTC)

预报

该预报发布于2小时和5分钟前的22:00 UTC
预报有效从29日的 00点(UTC)到 30日的 00点(UTC)
风速6节,风向
能见度10公里或以上
少量云层高于1600英尺, 积雨云.
散云层高于1800英尺
多云层高于8000英尺
多云层高于30000英尺
短暂存在
从 29日的 00点(UTC)到 29日的 06点(UTC)
能見度: 7000
少量云层高于1500英尺, 积雨云.
多云层高于1600英尺
多云层高于7000英尺
雷暴, 小雨
从 29日的 0300点(UTC)
风速4节,风向北转东北

TAF: MDSD 282200Z 2900/3000 10006KT 9999 FEW016CB SCT018 BKN080 BKN300 TEMPO 2900/2906 7000 -TSRA FEW015CB BKN016 BKN070 FM290300 02004KT

超过4000个机场的气象观测和天气预报(METAR&TAF报告)。

可查询的气象台以黄色和红色小点在地图上表示。

将鼠标移到小点上方,可查看气象台名称。

然后点击查看天气观测和预报。

如需切换地图:点击带黑十字的绿色按钮放大地图;点击带横线的绿色按钮缩小地图;或者点击绿色箭头查看邻近地区的地图。


METAR-TAF: